createdAt,value
2023-01-27T00:04:33.944Z,99734.88
2023-01-27T00:09:36.522Z,99750.66
2023-01-27T00:14:39.107Z,99739.72
2023-01-27T00:19:44.773Z,99758.22
2023-01-27T00:24:47.322Z,99753.78
2023-01-27T00:29:49.977Z,99751.56
2023-01-27T00:34:52.507Z,99750.78
2023-01-27T00:39:55.122Z,99750.97
2023-01-27T00:45:16.063Z,99733.63
2023-01-27T00:50:19.727Z,99748.13
2023-01-27T00:55:22.318Z,99737.97
2023-01-27T01:00:24.832Z,99727.88
2023-01-27T01:05:27.421Z,99729.31
2023-01-27T01:10:30.262Z,99733.03
2023-01-27T01:15:36.290Z,99729.47
2023-01-27T01:20:41.648Z,99725.59
2023-01-27T01:25:53.597Z,99729.53
2023-01-27T01:30:56.309Z,99725.59
2023-01-27T01:36:10.775Z,99723.66
2023-01-27T01:41:19.378Z,99725.75
2023-01-27T01:46:23.029Z,99716.91
2023-01-27T01:51:28.729Z,99718.31
2023-01-27T01:56:37.861Z,99705.84
2023-01-27T02:01:40.470Z,99716.91
2023-01-27T02:06:50.418Z,99712.72
2023-01-27T02:11:53.478Z,99718.09
2023-01-27T02:17:15.365Z,99712.94
2023-01-27T02:22:27.460Z,99710.25
2023-01-27T02:27:30.000Z,99709.00
2023-01-27T02:32:34.798Z,99683.41
2023-01-27T02:37:38.370Z,99700.09
2023-01-27T02:42:40.993Z,99686.94
2023-01-27T02:47:43.608Z,99694.66
2023-01-27T02:52:46.593Z,99688.22
2023-01-27T02:57:49.288Z,99684.59
2023-01-27T03:03:05.922Z,99691.97
2023-01-27T03:08:08.697Z,99698.66
2023-01-27T03:13:11.451Z,99689.16
2023-01-27T03:18:18.174Z,99690.84
2023-01-27T03:23:20.810Z,99708.13
2023-01-27T03:28:27.577Z,99695.69
2023-01-27T03:33:48.088Z,99685.38
2023-01-27T03:39:21.597Z,99693.78
2023-01-27T03:44:42.786Z,99664.25
2023-01-27T03:49:45.644Z,99694.03
2023-01-27T03:54:48.853Z,99701.91
2023-01-27T03:59:51.506Z,99710.34
2023-01-27T04:05:16.454Z,99708.06
2023-01-27T04:10:19.022Z,99701.47
2023-01-27T04:15:21.787Z,99714.59
2023-01-27T04:20:24.347Z,99728.13
2023-01-27T04:25:26.950Z,99728.72
2023-01-27T04:30:29.531Z,99724.72
2023-01-27T04:35:38.630Z,99705.22
2023-01-27T04:40:42.226Z,99716.13
2023-01-27T04:45:45.047Z,99735.66
2023-01-27T04:50:48.353Z,99699.94
2023-01-27T04:55:51.065Z,99733.59
2023-01-27T05:00:53.676Z,99739.03
2023-01-27T05:05:56.331Z,99736.13
2023-01-27T05:10:58.903Z,99733.88
2023-01-27T05:16:09.063Z,99730.88
2023-01-27T05:21:17.529Z,99754.41
2023-01-27T05:26:25.369Z,99748.34
2023-01-27T05:31:31.601Z,99752.28
2023-01-27T05:36:34.813Z,99752.44
2023-01-27T05:41:37.769Z,99762.03
2023-01-27T05:46:42.696Z,99776.34
2023-01-27T05:51:45.415Z,99766.91
2023-01-27T05:56:48.240Z,99768.63
2023-01-27T06:01:50.846Z,99776.44
2023-01-27T06:06:54.033Z,99775.19
2023-01-27T06:11:59.677Z,99756.47
2023-01-27T06:17:02.236Z,99769.50
2023-01-27T06:22:10.617Z,99759.59
2023-01-27T06:27:13.129Z,99770.97
2023-01-27T06:32:18.481Z,99761.25
2023-01-27T06:37:21.161Z,99742.00
2023-01-27T06:42:25.857Z,99777.91
2023-01-27T06:47:31.679Z,99778.16
2023-01-27T06:52:34.745Z,99757.47
2023-01-27T06:57:47.007Z,99759.38
2023-01-27T07:02:51.043Z,99772.13
2023-01-27T07:07:53.966Z,99783.97
2023-01-27T07:13:10.492Z,99793.66
2023-01-27T07:18:15.705Z,99762.50
2023-01-27T07:23:22.684Z,99774.97
2023-01-27T07:28:25.504Z,99787.34
2023-01-27T07:33:28.710Z,99797.41
2023-01-27T07:38:31.755Z,99807.63
2023-01-27T07:43:34.835Z,99781.28
2023-01-27T07:48:42.938Z,99807.13
2023-01-27T07:53:45.708Z,99817.31
2023-01-27T07:58:48.416Z,99782.22
2023-01-27T08:03:51.071Z,99819.19
2023-01-27T08:08:53.721Z,99810.25
2023-01-27T08:13:56.433Z,99807.63
2023-01-27T08:19:01.889Z,99824.66
2023-01-27T08:24:04.969Z,99837.91
2023-01-27T08:29:07.855Z,99816.38
2023-01-27T08:34:10.900Z,99814.78
2023-01-27T08:39:14.615Z,99823.94
2023-01-27T08:44:23.130Z,99819.19
2023-01-27T08:49:27.100Z,99817.28
2023-01-27T08:54:29.673Z,99820.44
2023-01-27T08:59:32.365Z,99808.31
2023-01-27T09:04:41.284Z,99827.69
2023-01-27T09:09:49.659Z,99822.00
2023-01-27T09:14:54.551Z,99820.69
2023-01-27T09:19:57.981Z,99829.25
2023-01-27T09:25:01.187Z,99824.66
2023-01-27T09:30:07.126Z,99818.66
2023-01-27T09:35:10.434Z,99819.88
2023-01-27T09:40:36.717Z,99805.38
2023-01-27T09:45:59.381Z,99832.06
2023-01-27T09:51:13.046Z,99818.94
2023-01-27T09:56:21.798Z,99821.25
2023-01-27T10:01:44.891Z,99818.03
2023-01-27T10:07:15.390Z,99826.00
2023-01-27T10:12:42.770Z,99827.91
2023-01-27T10:17:54.160Z,99823.53
2023-01-27T10:22:59.822Z,99825.47
2023-01-27T10:28:12.839Z,99811.91
2023-01-27T10:33:28.399Z,99811.03
2023-01-27T10:38:56.358Z,99832.75
2023-01-27T10:44:23.039Z,99821.22
2023-01-27T10:49:36.360Z,99827.00
2023-01-27T10:54:44.253Z,99802.34
2023-01-27T11:00:46.452Z,99839.22
2023-01-27T11:05:44.752Z,99840.88
2023-01-27T11:11:11.846Z,99837.47
2023-01-27T11:16:20.109Z,99833.63
2023-01-27T11:21:28.574Z,99831.66
2023-01-27T11:26:46.681Z,99833.81
2023-01-27T11:32:10.277Z,99838.06
2023-01-27T11:37:30.761Z,99833.31
2023-01-27T11:42:37.724Z,99837.34
2023-01-27T11:47:43.573Z,99826.28
2023-01-27T11:52:49.896Z,99828.28
2023-01-27T11:58:02.687Z,99842.69
2023-01-27T12:03:17.877Z,99805.72
2023-01-27T12:08:47.135Z,99852.63
2023-01-27T12:14:13.434Z,99846.56
2023-01-27T12:19:25.408Z,99851.00
2023-01-27T12:24:31.769Z,99854.63
2023-01-27T12:29:44.878Z,99858.31
2023-01-27T12:34:52.159Z,99857.34
2023-01-27T12:40:00.679Z,99861.09
2023-01-27T12:45:23.006Z,99875.16
2023-01-27T12:50:25.955Z,99876.38
2023-01-27T12:55:34.800Z,99880.97
2023-01-27T13:00:37.948Z,99897.22
2023-01-27T13:05:43.414Z,99865.56
2023-01-27T13:10:56.298Z,99864.25
2023-01-27T13:16:04.706Z,99879.28
2023-01-27T13:21:15.776Z,99886.41
2023-01-27T13:26:24.694Z,99895.47
2023-01-27T13:31:43.456Z,99902.44
2023-01-27T13:36:53.715Z,99873.38
2023-01-27T13:42:11.761Z,99903.28
2023-01-27T13:47:47.343Z,99904.25
2023-01-27T13:52:54.975Z,99902.84
2023-01-27T13:58:16.254Z,99911.88
2023-01-27T14:03:42.490Z,99912.75
2023-01-27T14:08:57.568Z,99913.28
2023-01-27T14:14:23.591Z,99921.34
2023-01-27T14:19:44.749Z,99931.06
2023-01-27T14:25:00.695Z,99930.25
2023-01-27T14:30:27.319Z,99942.63
2023-01-27T14:35:57.640Z,99934.06
2023-01-27T14:41:34.104Z,99943.56
2023-01-27T14:46:56.847Z,99892.34
2023-01-27T14:52:42.496Z,99958.69
2023-01-27T14:58:03.895Z,99962.28
2023-01-27T15:03:09.174Z,99958.06
2023-01-27T15:08:24.576Z,99959.66
2023-01-27T15:13:52.280Z,99957.19
2023-01-27T15:19:30.255Z,99958.09
2023-01-27T15:25:12.515Z,99959.41
2023-01-27T15:30:21.684Z,99968.56
2023-01-27T15:35:34.954Z,99966.00
2023-01-27T15:40:55.990Z,99977.97
2023-01-27T15:46:20.177Z,99977.69
2023-01-27T15:51:24.261Z,99981.91
2023-01-27T15:57:06.583Z,99986.00
2023-01-27T16:02:17.355Z,99980.69
2023-01-27T16:07:32.856Z,99981.50
2023-01-27T16:12:45.091Z,99989.16
2023-01-27T16:18:07.162Z,99989.59
2023-01-27T16:23:19.232Z,99982.44
2023-01-27T16:28:27.768Z,99996.16
2023-01-27T16:33:44.520Z,100010.69
2023-01-27T16:38:49.131Z,100008.63
2023-01-27T16:43:57.125Z,100012.72
2023-01-27T16:49:11.377Z,100012.38
2023-01-27T16:54:22.924Z,100008.59
2023-01-27T16:59:28.475Z,99996.31
2023-01-27T17:04:32.051Z,100018.50
2023-01-27T17:09:41.674Z,100013.28
2023-01-27T17:14:46.808Z,100011.19
2023-01-27T17:19:52.444Z,100015.53
2023-01-27T17:25:01.899Z,100014.75
2023-01-27T17:30:19.274Z,100017.78
2023-01-27T17:35:21.951Z,100022.47
2023-01-27T17:40:24.870Z,100023.84
2023-01-27T17:45:34.051Z,99981.22
2023-01-27T17:50:39.622Z,100023.09
2023-01-27T17:55:42.435Z,100021.25
2023-01-27T18:00:47.107Z,100031.28
2023-01-27T18:05:53.202Z,100023.16
2023-01-27T18:11:13.203Z,100032.47
2023-01-27T18:16:21.833Z,100042.53
2023-01-27T18:21:27.576Z,100038.75
2023-01-27T18:26:32.916Z,100046.81
2023-01-27T18:31:44.578Z,100028.97
2023-01-27T18:37:02.389Z,100042.00
2023-01-27T18:42:15.615Z,100044.38
2023-01-27T18:47:18.764Z,100048.22
2023-01-27T18:52:22.611Z,100026.75
2023-01-27T18:57:25.712Z,100056.47
2023-01-27T19:02:28.607Z,100064.69
2023-01-27T19:07:33.056Z,100066.91
2023-01-27T19:12:36.087Z,100064.88
2023-01-27T19:17:39.257Z,100044.34
2023-01-27T19:22:42.320Z,100072.47
2023-01-27T19:27:51.717Z,100070.06
2023-01-27T19:32:55.669Z,100057.47
2023-01-27T19:38:03.520Z,100076.38
2023-01-27T19:43:06.687Z,100080.59
2023-01-27T19:48:18.277Z,100083.50
2023-01-27T19:53:20.848Z,100075.50
2023-01-27T19:58:27.769Z,100081.09
2023-01-27T20:03:31.107Z,100047.91
2023-01-27T20:08:33.701Z,100082.41
2023-01-27T20:13:36.265Z,100079.34
2023-01-27T20:18:42.003Z,100080.31
2023-01-27T20:23:44.803Z,100082.69
2023-01-27T20:28:47.789Z,100086.66
2023-01-27T20:33:50.848Z,100079.50
2023-01-27T20:38:55.182Z,100101.06
2023-01-27T20:44:00.384Z,100097.75
2023-01-27T20:49:03.342Z,100081.59
2023-01-27T20:54:06.243Z,100086.09
2023-01-27T20:59:08.762Z,100085.19
2023-01-27T21:04:11.296Z,100092.78
2023-01-27T21:09:13.886Z,100094.38
2023-01-27T21:14:16.484Z,100091.38
2023-01-27T21:19:19.209Z,100097.06
2023-01-27T21:24:23.391Z,100100.59
2023-01-27T21:29:26.096Z,100097.47
2023-01-27T21:34:28.652Z,100096.19
2023-01-27T21:39:31.344Z,100099.41
2023-01-27T21:44:52.507Z,100110.25
2023-01-27T21:50:01.026Z,100108.53
2023-01-27T21:55:09.793Z,100108.53
2023-01-27T22:00:15.193Z,100098.97
2023-01-27T22:05:18.063Z,100101.78
2023-01-27T22:10:26.761Z,100116.06
2023-01-27T22:15:29.715Z,100110.69
2023-01-27T22:20:32.306Z,100109.00
2023-01-27T22:25:34.927Z,100109.50
2023-01-27T22:30:37.594Z,100119.13
2023-01-27T22:35:40.257Z,100082.34
2023-01-27T22:40:42.918Z,100110.00
2023-01-27T22:45:45.549Z,100126.34
2023-01-27T22:50:48.191Z,100114.22
2023-01-27T22:56:01.098Z,100123.34
2023-01-27T23:01:13.409Z,100127.66
2023-01-27T23:06:16.217Z,100133.63
2023-01-27T23:11:18.783Z,100144.31
2023-01-27T23:16:23.436Z,100143.38
2023-01-27T23:21:28.454Z,100142.03
2023-01-27T23:26:31.519Z,100156.56
2023-01-27T23:31:34.121Z,100160.41
2023-01-27T23:36:36.814Z,100156.00
2023-01-27T23:41:39.351Z,100164.00
2023-01-27T23:46:43.425Z,100173.34
2023-01-27T23:51:46.029Z,100176.28
2023-01-27T23:56:48.690Z,100175.38
